createdAt,value
2022-09-23T00:00:45.324Z,10.90
2022-09-23T00:03:13.471Z,10.90
2022-09-23T00:05:41.368Z,10.80
2022-09-23T00:08:11.087Z,10.80
2022-09-23T00:10:40.406Z,10.80
2022-09-23T00:13:09.075Z,10.70
2022-09-23T00:15:41.089Z,10.70
2022-09-23T00:18:09.727Z,10.70
2022-09-23T00:20:37.760Z,10.60
2022-09-23T00:23:05.615Z,10.60
2022-09-23T00:25:33.513Z,10.60
2022-09-23T00:28:01.944Z,10.50
2022-09-23T00:30:29.946Z,10.50
2022-09-23T00:32:59.677Z,10.50
2022-09-23T00:35:27.820Z,10.50
2022-09-23T00:37:56.158Z,10.50
2022-09-23T00:40:24.093Z,10.40
2022-09-23T00:42:52.279Z,10.40
2022-09-23T00:45:20.616Z,10.40
2022-09-23T00:47:49.549Z,10.30
2022-09-23T00:50:22.339Z,10.30
2022-09-23T00:52:51.580Z,10.30
2022-09-23T00:55:23.995Z,10.30
2022-09-23T00:57:54.541Z,10.30
2022-09-23T01:00:23.187Z,10.20
2022-09-23T01:02:51.691Z,10.20
2022-09-23T01:05:21.536Z,10.20
2022-09-23T01:07:50.812Z,10.20
2022-09-23T01:10:19.331Z,10.20
2022-09-23T01:12:54.322Z,10.20
2022-09-23T01:15:25.311Z,10.10
2022-09-23T01:17:58.319Z,10.10
2022-09-23T01:20:39.220Z,10.10
2022-09-23T01:23:14.570Z,10.00
2022-09-23T01:25:53.291Z,10.00
2022-09-23T01:28:33.306Z,10.10
2022-09-23T01:31:06.723Z,10.00
2022-09-23T01:33:39.379Z,10.00
2022-09-23T01:36:14.193Z,10.00
2022-09-23T01:38:45.963Z,9.90
2022-09-23T01:41:18.472Z,9.90
2022-09-23T01:43:49.876Z,9.90
2022-09-23T01:46:21.665Z,9.90
2022-09-23T01:48:52.776Z,9.90
2022-09-23T01:51:23.423Z,10.00
2022-09-23T01:53:54.290Z,9.90
2022-09-23T01:56:25.325Z,9.90
2022-09-23T01:58:57.734Z,9.90
2022-09-23T02:01:31.100Z,10.00
2022-09-23T02:04:04.162Z,10.00
2022-09-23T02:06:34.654Z,10.00
2022-09-23T02:09:03.809Z,10.00
2022-09-23T02:11:31.979Z,10.20
2022-09-23T02:14:02.538Z,10.00
2022-09-23T02:16:34.389Z,10.00
2022-09-23T02:19:04.249Z,10.00
2022-09-23T02:21:34.934Z,10.00
2022-09-23T02:24:05.202Z,10.00
2022-09-23T02:26:35.813Z,10.00
2022-09-23T02:29:08.958Z,9.90
2022-09-23T02:31:40.099Z,9.90
2022-09-23T02:34:14.338Z,9.90
2022-09-23T02:36:46.059Z,10.00
2022-09-23T02:39:15.016Z,10.00
2022-09-23T02:41:48.023Z,10.00
2022-09-23T02:44:17.710Z,9.90
2022-09-23T02:46:47.096Z,9.90
2022-09-23T02:49:17.460Z,10.00
2022-09-23T02:51:46.082Z,9.90
2022-09-23T02:54:15.532Z,9.90
2022-09-23T02:56:43.414Z,9.90
2022-09-23T02:59:14.221Z,9.90
2022-09-23T03:01:47.776Z,9.30
2022-09-23T03:04:21.769Z,9.90
2022-09-23T03:06:53.355Z,9.90
2022-09-23T03:09:23.427Z,9.90
2022-09-23T03:11:54.124Z,9.80
2022-09-23T03:14:26.503Z,9.80
2022-09-23T03:16:56.206Z,9.80
2022-09-23T03:19:28.150Z,9.80
2022-09-23T03:22:00.805Z,9.80
2022-09-23T03:24:31.255Z,9.80
2022-09-23T03:27:01.181Z,9.80
2022-09-23T03:29:29.510Z,9.80
2022-09-23T03:31:58.185Z,9.80
2022-09-23T03:34:29.609Z,9.80
2022-09-23T03:37:01.753Z,9.70
2022-09-23T03:39:32.527Z,9.70
2022-09-23T03:42:02.869Z,9.70
2022-09-23T03:44:31.150Z,9.70
2022-09-23T03:47:03.753Z,9.70
2022-09-23T03:49:35.028Z,9.70
2022-09-23T03:52:03.513Z,9.70
2022-09-23T03:54:31.500Z,9.70
2022-09-23T03:56:59.736Z,9.70
2022-09-23T03:59:28.345Z,9.60
2022-09-23T04:01:56.608Z,9.70
2022-09-23T04:04:24.568Z,9.60
2022-09-23T04:06:53.946Z,9.60
2022-09-23T04:09:21.875Z,9.60
2022-09-23T04:11:50.005Z,9.60
2022-09-23T04:14:18.302Z,9.60
2022-09-23T04:16:46.325Z,9.60
2022-09-23T04:19:15.550Z,9.60
2022-09-23T04:21:44.182Z,9.50
2022-09-23T04:24:13.855Z,9.50
2022-09-23T04:26:41.730Z,9.50
2022-09-23T04:29:12.151Z,9.50
2022-09-23T04:31:40.267Z,9.50
2022-09-23T04:34:10.657Z,9.50
2022-09-23T04:36:38.810Z,9.50
2022-09-23T04:39:12.677Z,9.40
2022-09-23T04:41:42.035Z,9.40
2022-09-23T04:44:10.441Z,9.40
2022-09-23T04:46:39.175Z,9.40
2022-09-23T04:49:09.003Z,9.40
2022-09-23T04:51:37.286Z,9.40
2022-09-23T04:54:06.307Z,9.30
2022-09-23T04:56:34.299Z,9.30
2022-09-23T04:59:04.247Z,9.30
2022-09-23T05:01:34.428Z,9.30
2022-09-23T05:04:05.550Z,9.30
2022-09-23T05:06:34.923Z,9.30
2022-09-23T05:09:03.840Z,9.20
2022-09-23T05:11:32.269Z,9.20
2022-09-23T05:14:08.585Z,9.20
2022-09-23T05:16:36.939Z,9.20
2022-09-23T05:19:05.736Z,9.20
2022-09-23T05:21:33.794Z,9.20
2022-09-23T05:24:02.002Z,9.10
2022-09-23T05:26:31.374Z,9.10
2022-09-23T05:28:59.695Z,9.10
2022-09-23T05:31:30.259Z,9.10
2022-09-23T05:33:59.249Z,9.20
2022-09-23T05:36:27.859Z,9.10
2022-09-23T05:38:59.495Z,9.10
2022-09-23T05:41:28.058Z,9.10
2022-09-23T05:43:56.607Z,9.10
2022-09-23T05:46:25.528Z,9.10
2022-09-23T05:48:59.878Z,9.10
2022-09-23T05:51:31.302Z,9.10
2022-09-23T05:53:59.768Z,9.10
2022-09-23T05:56:28.514Z,9.10
2022-09-23T05:58:57.271Z,9.20
2022-09-23T06:01:27.090Z,9.20
2022-09-23T06:03:57.130Z,9.20
2022-09-23T06:06:27.085Z,9.30
2022-09-23T06:08:55.037Z,9.30
2022-09-23T06:11:22.971Z,9.40
2022-09-23T06:13:55.225Z,9.40
2022-09-23T06:16:23.330Z,9.50
2022-09-23T06:18:51.267Z,9.50
2022-09-23T06:21:20.858Z,9.50
2022-09-23T06:23:49.151Z,9.50
2022-09-23T06:26:18.263Z,9.50
2022-09-23T06:28:46.761Z,9.60
2022-09-23T06:31:15.456Z,9.60
2022-09-23T06:33:44.906Z,9.60
2022-09-23T06:36:17.848Z,9.60
2022-09-23T06:38:54.024Z,9.70
2022-09-23T06:41:21.947Z,9.70
2022-09-23T06:43:49.949Z,9.70
2022-09-23T06:46:18.035Z,9.70
2022-09-23T06:48:46.411Z,9.80
2022-09-23T06:51:19.182Z,9.80
2022-09-23T06:53:48.117Z,9.90
2022-09-23T06:56:19.836Z,9.90
2022-09-23T06:58:48.014Z,9.90
2022-09-23T07:01:17.141Z,10.00
2022-09-23T07:03:45.898Z,10.00
2022-09-23T07:06:14.077Z,10.00
2022-09-23T07:08:43.989Z,10.10
2022-09-23T07:11:13.363Z,10.10
2022-09-23T07:13:43.402Z,10.20
2022-09-23T07:16:11.867Z,10.20
2022-09-23T07:18:41.121Z,10.20
2022-09-23T07:21:10.226Z,10.30
2022-09-23T07:23:38.839Z,10.30
2022-09-23T07:26:07.833Z,10.40
2022-09-23T07:28:37.161Z,10.40
2022-09-23T07:31:08.007Z,10.50
2022-09-23T07:33:36.858Z,10.50
2022-09-23T07:36:06.220Z,10.60
2022-09-23T07:38:34.332Z,10.60
2022-09-23T07:41:03.935Z,10.60
2022-09-23T07:43:33.037Z,10.70
2022-09-23T07:46:02.313Z,10.80
2022-09-23T07:48:34.401Z,10.80
2022-09-23T07:51:07.260Z,10.90
2022-09-23T07:53:39.325Z,11.00
2022-09-23T07:56:07.306Z,11.00
2022-09-23T07:58:35.580Z,11.10
2022-09-23T08:01:05.038Z,11.20
2022-09-23T08:03:35.106Z,11.20
2022-09-23T08:06:05.164Z,11.30
2022-09-23T08:08:33.077Z,11.40
2022-09-23T08:11:02.455Z,11.50
2022-09-23T08:13:30.898Z,11.60
2022-09-23T08:15:59.213Z,11.70
2022-09-23T08:18:27.408Z,11.80
2022-09-23T08:20:58.763Z,11.90
2022-09-23T08:23:26.761Z,11.90
2022-09-23T08:25:59.884Z,12.00
2022-09-23T08:28:28.302Z,12.10
2022-09-23T08:30:56.785Z,12.20
2022-09-23T08:33:24.794Z,12.20
2022-09-23T08:35:53.187Z,12.30
2022-09-23T08:38:22.460Z,12.40
2022-09-23T08:40:50.554Z,12.50
2022-09-23T08:43:21.924Z,12.50
2022-09-23T08:45:51.400Z,12.50
2022-09-23T08:48:23.349Z,12.70
2022-09-23T08:50:53.552Z,12.70
2022-09-23T08:53:26.236Z,12.80
2022-09-23T08:55:55.407Z,12.90
2022-09-23T08:58:34.329Z,12.90
2022-09-23T09:01:08.797Z,12.90
2022-09-23T09:03:37.882Z,13.00
2022-09-23T09:06:06.268Z,13.10
2022-09-23T09:08:37.924Z,13.10
2022-09-23T09:11:06.790Z,13.20
2022-09-23T09:13:36.765Z,13.20
2022-09-23T09:16:18.820Z,13.30
2022-09-23T09:18:56.914Z,13.30
2022-09-23T09:21:27.243Z,13.40
2022-09-23T09:23:57.230Z,13.50
2022-09-23T09:26:26.429Z,13.50
2022-09-23T09:29:06.555Z,13.60
2022-09-23T09:31:46.064Z,13.60
2022-09-23T09:34:18.520Z,13.70
2022-09-23T09:36:47.799Z,13.70
2022-09-23T09:39:17.294Z,13.80
2022-09-23T09:41:46.628Z,13.80
2022-09-23T09:44:23.432Z,13.90
2022-09-23T09:46:57.572Z,13.90
2022-09-23T09:49:28.824Z,13.90
2022-09-23T09:52:12.273Z,14.00
2022-09-23T09:54:41.437Z,14.10
2022-09-23T09:57:16.878Z,14.10
2022-09-23T09:59:44.700Z,14.20
2022-09-23T10:02:23.992Z,14.30
2022-09-23T10:04:56.401Z,14.40
2022-09-23T10:07:26.038Z,14.40
2022-09-23T10:09:58.308Z,14.50
2022-09-23T10:12:43.912Z,14.60
2022-09-23T10:15:26.779Z,14.70
2022-09-23T10:17:54.936Z,14.70
2022-09-23T10:20:22.819Z,14.80
2022-09-23T10:22:50.765Z,14.90
2022-09-23T10:25:22.079Z,15.00
2022-09-23T10:27:49.969Z,15.10
2022-09-23T10:30:22.588Z,15.10
2022-09-23T10:32:51.032Z,15.20
2022-09-23T10:35:21.050Z,15.30
2022-09-23T10:37:50.371Z,15.40
2022-09-23T10:40:37.903Z,15.40
2022-09-23T10:43:35.939Z,15.50
2022-09-23T10:46:23.955Z,15.50
2022-09-23T10:48:55.616Z,15.60
2022-09-23T10:51:26.603Z,15.60
2022-09-23T10:53:57.881Z,15.70
2022-09-23T10:56:30.324Z,15.70
2022-09-23T10:59:19.694Z,15.80
2022-09-23T11:01:52.513Z,15.90
2022-09-23T11:04:29.762Z,15.90
2022-09-23T11:07:07.872Z,16.00
2022-09-23T11:09:41.243Z,16.00
2022-09-23T11:12:15.188Z,16.10
2022-09-23T11:14:52.067Z,16.10
2022-09-23T11:17:37.120Z,16.20
2022-09-23T11:20:35.299Z,16.20
2022-09-23T11:23:21.212Z,16.30
2022-09-23T11:25:53.634Z,16.30
2022-09-23T11:28:29.876Z,16.40
2022-09-23T11:31:06.615Z,16.40
2022-09-23T11:33:41.982Z,16.40
2022-09-23T11:36:12.499Z,16.40
2022-09-23T11:38:42.256Z,16.50
2022-09-23T11:41:17.489Z,16.50
2022-09-23T11:43:51.239Z,16.60
2022-09-23T11:46:28.953Z,16.60
2022-09-23T11:48:58.730Z,16.70
2022-09-23T11:51:30.083Z,16.60
2022-09-23T11:54:00.741Z,16.80
2022-09-23T11:56:35.903Z,16.90
2022-09-23T11:59:07.215Z,17.10
2022-09-23T12:01:43.089Z,17.20
2022-09-23T12:04:20.447Z,17.20
2022-09-23T12:06:50.055Z,17.30
2022-09-23T12:09:41.003Z,17.40
2022-09-23T12:12:14.862Z,17.40
2022-09-23T12:14:48.774Z,17.50
2022-09-23T12:17:27.808Z,17.50
2022-09-23T12:20:04.788Z,17.50
2022-09-23T12:22:39.142Z,17.50
2022-09-23T12:25:12.999Z,17.50
2022-09-23T12:27:44.892Z,17.50
2022-09-23T12:30:15.131Z,17.50
2022-09-23T12:32:44.908Z,17.50
2022-09-23T12:35:21.791Z,17.50
2022-09-23T12:37:50.178Z,17.50
2022-09-23T12:40:19.970Z,17.50
2022-09-23T12:42:48.897Z,17.60
2022-09-23T12:45:37.318Z,17.50
2022-09-23T12:48:27.325Z,17.50
2022-09-23T12:50:58.431Z,17.50
2022-09-23T12:53:54.517Z,17.50
2022-09-23T12:56:24.195Z,17.40
2022-09-23T12:58:58.801Z,17.40
2022-09-23T13:01:27.389Z,17.40
2022-09-23T13:04:15.186Z,17.30
2022-09-23T13:06:43.932Z,17.30
2022-09-23T13:09:16.170Z,17.30
2022-09-23T13:11:45.298Z,17.30
2022-09-23T13:14:16.457Z,17.30
2022-09-23T13:16:45.888Z,17.30
2022-09-23T13:19:28.757Z,17.30
2022-09-23T13:22:03.032Z,17.30
2022-09-23T13:24:39.708Z,17.20
2022-09-23T13:27:14.160Z,17.20
2022-09-23T13:29:44.155Z,17.20
2022-09-23T13:32:13.162Z,17.20
2022-09-23T13:34:44.222Z,17.20
2022-09-23T13:37:22.020Z,17.20
2022-09-23T13:39:51.021Z,17.20
2022-09-23T13:42:21.975Z,17.10
2022-09-23T13:44:49.958Z,17.10
2022-09-23T13:47:18.089Z,17.10
2022-09-23T13:49:48.012Z,17.10
2022-09-23T13:52:24.900Z,17.10
2022-09-23T13:54:52.962Z,17.00
2022-09-23T13:57:29.179Z,17.00
2022-09-23T14:00:01.314Z,16.90
2022-09-23T14:02:29.397Z,16.90
2022-09-23T14:04:58.584Z,16.90
2022-09-23T14:07:27.832Z,16.90
2022-09-23T14:09:56.612Z,16.90
2022-09-23T14:12:24.682Z,16.80
2022-09-23T14:14:53.507Z,16.80
2022-09-23T14:17:22.854Z,16.80
2022-09-23T14:19:51.184Z,16.80
2022-09-23T14:22:24.200Z,16.70
2022-09-23T14:24:53.780Z,16.70
2022-09-23T14:27:26.685Z,16.80
2022-09-23T14:29:54.726Z,16.80
2022-09-23T14:32:24.964Z,16.80
2022-09-23T14:34:54.787Z,16.80
2022-09-23T14:37:47.814Z,16.80
2022-09-23T14:40:18.627Z,16.70
2022-09-23T14:42:47.661Z,16.70
2022-09-23T14:45:17.697Z,16.60
2022-09-23T14:47:47.435Z,16.50
2022-09-23T14:50:39.695Z,16.50
2022-09-23T14:53:22.801Z,16.50
2022-09-23T14:55:53.736Z,16.50
2022-09-23T14:58:23.923Z,16.50
2022-09-23T15:00:57.003Z,16.40
2022-09-23T15:03:25.029Z,16.40
2022-09-23T15:05:57.940Z,16.40
2022-09-23T15:08:27.711Z,16.40
2022-09-23T15:10:57.342Z,16.30
2022-09-23T15:13:28.272Z,16.30
2022-09-23T15:15:57.190Z,16.30
2022-09-23T15:18:25.896Z,16.20
2022-09-23T15:20:54.829Z,16.20
2022-09-23T15:23:36.132Z,16.20
2022-09-23T15:26:08.097Z,16.10
2022-09-23T15:28:36.011Z,16.10
2022-09-23T15:31:05.839Z,16.10
2022-09-23T15:33:34.322Z,16.10
2022-09-23T15:36:03.351Z,16.00
2022-09-23T15:38:31.865Z,16.00
2022-09-23T15:41:00.013Z,16.00
2022-09-23T15:43:29.414Z,16.00
2022-09-23T15:45:58.727Z,15.90
2022-09-23T15:48:28.725Z,15.90
2022-09-23T15:50:58.467Z,15.90
2022-09-23T15:53:27.779Z,15.90
2022-09-23T15:55:58.580Z,15.90
2022-09-23T15:58:27.720Z,15.80
2022-09-23T16:00:57.707Z,15.90
2022-09-23T16:03:28.694Z,15.90
2022-09-23T16:06:04.104Z,15.90
2022-09-23T16:08:33.160Z,15.80
2022-09-23T16:11:03.643Z,15.80
2022-09-23T16:13:31.671Z,15.90
2022-09-23T16:16:00.993Z,15.80
2022-09-23T16:18:29.071Z,15.80
2022-09-23T16:20:58.307Z,15.90
2022-09-23T16:23:35.404Z,15.90
2022-09-23T16:26:07.548Z,15.80
2022-09-23T16:28:35.520Z,16.00
2022-09-23T16:31:05.022Z,15.90
2022-09-23T16:33:32.961Z,15.90
2022-09-23T16:36:01.859Z,15.80
2022-09-23T16:38:30.027Z,15.80
2022-09-23T16:41:00.684Z,15.80
2022-09-23T16:43:31.647Z,15.80
2022-09-23T16:45:59.693Z,15.80
2022-09-23T16:48:28.972Z,15.80
2022-09-23T16:50:56.874Z,15.80
2022-09-23T16:53:26.395Z,15.80
2022-09-23T16:55:54.506Z,15.80
2022-09-23T16:58:22.426Z,15.80
2022-09-23T17:01:08.442Z,15.80
2022-09-23T17:03:43.579Z,15.80
2022-09-23T17:06:12.247Z,15.80
2022-09-23T17:08:41.429Z,15.70
2022-09-23T17:11:10.613Z,15.80
2022-09-23T17:13:40.478Z,15.80
2022-09-23T17:16:08.541Z,15.80
2022-09-23T17:18:39.055Z,15.70
2022-09-23T17:21:08.041Z,15.70
2022-09-23T17:23:37.085Z,15.70
2022-09-23T17:26:05.921Z,15.70
2022-09-23T17:28:33.786Z,15.70
2022-09-23T17:31:02.750Z,15.70
2022-09-23T17:33:31.227Z,15.70
2022-09-23T17:36:01.596Z,15.60
2022-09-23T17:38:29.777Z,15.60
2022-09-23T17:40:59.053Z,15.70
2022-09-23T17:43:27.110Z,15.60
2022-09-23T17:45:56.734Z,15.60
2022-09-23T17:48:25.436Z,15.60
2022-09-23T17:50:56.730Z,15.60
2022-09-23T17:53:26.199Z,15.60
2022-09-23T17:55:57.785Z,15.60
2022-09-23T17:58:26.343Z,15.50
2022-09-23T18:00:55.389Z,15.50
2022-09-23T18:03:23.745Z,15.50
2022-09-23T18:05:51.760Z,15.50
2022-09-23T18:08:19.861Z,15.50
2022-09-23T18:10:49.129Z,15.50
2022-09-23T18:13:17.100Z,15.50
2022-09-23T18:15:45.021Z,15.50
2022-09-23T18:18:12.922Z,15.50
2022-09-23T18:20:40.769Z,15.50
2022-09-23T18:23:08.666Z,15.50
2022-09-23T18:25:39.455Z,15.40
2022-09-23T18:28:09.201Z,15.50
2022-09-23T18:30:37.149Z,15.40
2022-09-23T18:33:05.121Z,15.40
2022-09-23T18:35:32.996Z,15.40
2022-09-23T18:38:00.877Z,15.40
2022-09-23T18:40:28.801Z,15.30
2022-09-23T18:42:56.795Z,15.30
2022-09-23T18:45:26.052Z,15.30
2022-09-23T18:48:11.624Z,15.30
2022-09-23T18:50:43.499Z,15.30
2022-09-23T18:53:11.496Z,15.30
2022-09-23T18:55:40.715Z,15.20
2022-09-23T18:58:08.596Z,15.20
2022-09-23T19:00:38.047Z,15.20
2022-09-23T19:03:06.027Z,15.20
2022-09-23T19:05:34.487Z,15.20
2022-09-23T19:08:02.777Z,15.20
2022-09-23T19:10:30.721Z,15.10
2022-09-23T19:12:58.636Z,15.10
2022-09-23T19:15:26.606Z,15.10
2022-09-23T19:17:55.794Z,15.10
2022-09-23T19:20:23.787Z,15.00
2022-09-23T19:22:51.667Z,14.90
2022-09-23T19:25:19.637Z,14.80
2022-09-23T19:27:48.557Z,14.80
2022-09-23T19:30:16.499Z,14.80
2022-09-23T19:32:45.317Z,14.70
2022-09-23T19:35:16.028Z,14.70
2022-09-23T19:37:46.099Z,14.60
2022-09-23T19:40:14.868Z,14.60
2022-09-23T19:42:43.882Z,14.50
2022-09-23T19:45:11.848Z,14.50
2022-09-23T19:47:39.863Z,14.50
2022-09-23T19:50:08.424Z,14.40
2022-09-23T19:52:37.832Z,14.40
2022-09-23T19:55:06.590Z,14.20
2022-09-23T19:57:34.533Z,14.40
2022-09-23T20:00:02.855Z,14.40
2022-09-23T20:02:30.855Z,14.30
2022-09-23T20:04:58.808Z,14.30
2022-09-23T20:07:26.942Z,14.30
2022-09-23T20:09:56.284Z,14.30
2022-09-23T20:12:24.325Z,14.30
2022-09-23T20:14:52.398Z,14.20
2022-09-23T20:17:20.813Z,14.30
2022-09-23T20:19:48.745Z,14.20
2022-09-23T20:22:29.605Z,14.20
2022-09-23T20:25:01.887Z,14.10
2022-09-23T20:27:31.192Z,14.20
2022-09-23T20:30:00.369Z,14.20
2022-09-23T20:32:29.059Z,14.20
2022-09-23T20:34:57.158Z,14.20
2022-09-23T20:37:25.498Z,14.20
2022-09-23T20:39:56.411Z,14.20
2022-09-23T20:42:25.671Z,14.30
2022-09-23T20:44:53.939Z,14.20
2022-09-23T20:47:24.055Z,14.20
2022-09-23T20:49:53.447Z,14.20
2022-09-23T20:52:22.168Z,14.20
2022-09-23T20:54:51.549Z,14.20
2022-09-23T20:57:21.038Z,14.10
2022-09-23T20:59:50.260Z,14.10
2022-09-23T21:02:18.426Z,14.10
2022-09-23T21:04:46.334Z,14.10
2022-09-23T21:07:14.170Z,14.10
2022-09-23T21:09:42.033Z,14.10
2022-09-23T21:12:09.941Z,14.10
2022-09-23T21:14:37.799Z,14.10
2022-09-23T21:17:07.174Z,14.10
2022-09-23T21:19:37.973Z,14.10
2022-09-23T21:22:05.921Z,14.10
2022-09-23T21:25:15.733Z,14.10
2022-09-23T21:27:22.805Z,14.00
2022-09-23T21:29:50.720Z,14.00
2022-09-23T21:32:19.965Z,14.00
2022-09-23T21:34:48.248Z,14.00
2022-09-23T21:37:16.157Z,14.00
2022-09-23T21:40:04.850Z,14.00
2022-09-23T21:42:32.824Z,14.00
2022-09-23T21:45:00.839Z,14.00
2022-09-23T21:47:32.401Z,14.00
2022-09-23T21:50:00.475Z,14.00
2022-09-23T21:52:28.369Z,13.90
2022-09-23T21:54:56.356Z,14.00
2022-09-23T21:57:25.821Z,13.90
2022-09-23T21:59:54.137Z,13.90
2022-09-23T22:02:23.363Z,13.90
2022-09-23T22:04:52.636Z,13.90
2022-09-23T22:07:20.995Z,13.90
2022-09-23T22:09:48.993Z,13.90
2022-09-23T22:12:16.866Z,13.90
2022-09-23T22:14:46.096Z,13.90
2022-09-23T22:17:15.778Z,13.80
2022-09-23T22:19:47.133Z,13.80
2022-09-23T22:22:17.845Z,13.80
2022-09-23T22:24:46.643Z,13.80
2022-09-23T22:27:15.800Z,13.80
2022-09-23T22:30:01.015Z,13.80
2022-09-23T22:32:54.367Z,13.70
2022-09-23T22:35:23.116Z,13.80
2022-09-23T22:37:52.336Z,13.70
2022-09-23T22:40:20.305Z,13.70
2022-09-23T22:42:48.702Z,13.60
2022-09-23T22:45:16.684Z,13.60
2022-09-23T22:47:45.713Z,13.60
2022-09-23T22:50:15.010Z,13.60
2022-09-23T22:52:43.436Z,13.50
2022-09-23T22:55:13.217Z,13.50
2022-09-23T22:57:41.061Z,13.50
2022-09-23T23:00:10.731Z,13.50
2022-09-23T23:02:39.965Z,13.50
2022-09-23T23:05:08.398Z,13.40
2022-09-23T23:07:36.332Z,13.30
2022-09-23T23:10:10.008Z,13.30
2022-09-23T23:12:41.867Z,13.30
2022-09-23T23:15:12.669Z,13.20
2022-09-23T23:17:43.557Z,13.20
2022-09-23T23:20:11.664Z,13.20
2022-09-23T23:22:39.533Z,13.10
2022-09-23T23:25:08.083Z,13.10
2022-09-23T23:27:35.978Z,13.10
2022-09-23T23:30:05.588Z,13.10
2022-09-23T23:32:33.494Z,13.10
2022-09-23T23:35:01.459Z,13.10
2022-09-23T23:37:29.499Z,12.70
2022-09-23T23:39:57.368Z,13.10
2022-09-23T23:42:26.583Z,13.10
2022-09-23T23:44:54.821Z,13.10
2022-09-23T23:47:24.057Z,13.10
2022-09-23T23:49:51.932Z,13.10
2022-09-23T23:52:19.795Z,13.10
2022-09-23T23:54:47.670Z,13.10
2022-09-23T23:57:15.560Z,13.10
2022-09-23T23:59:43.475Z,13.10
